createdAt,value
2023-01-26T00:00:03.080Z,10.93
2023-01-26T00:02:52.272Z,12.40
2023-01-26T00:05:27.884Z,11.43
2023-01-26T00:07:57.211Z,10.67
2023-01-26T00:10:28.627Z,10.20
2023-01-26T00:12:58.373Z,10.93
2023-01-26T00:15:29.672Z,10.60
2023-01-26T00:17:59.733Z,10.77
2023-01-26T00:20:35.627Z,10.70
2023-01-26T00:23:12.123Z,10.27
2023-01-26T00:25:49.737Z,9.70
2023-01-26T00:28:23.722Z,9.70
2023-01-26T00:30:51.959Z,9.67
2023-01-26T00:33:22.358Z,9.37
2023-01-26T00:35:56.986Z,9.40
2023-01-26T00:38:26.831Z,10.27
2023-01-26T00:40:55.413Z,9.50
2023-01-26T00:43:25.732Z,9.90
2023-01-26T00:45:57.736Z,10.23
2023-01-26T00:48:34.970Z,10.40
2023-01-26T00:51:13.654Z,9.30
2023-01-26T00:53:46.690Z,9.50
2023-01-26T00:56:19.291Z,9.03
2023-01-26T00:58:51.229Z,9.10
2023-01-26T01:01:23.057Z,9.50
2023-01-26T01:03:52.737Z,10.07
2023-01-26T01:06:23.493Z,8.50
2023-01-26T01:08:52.396Z,9.00
2023-01-26T01:11:21.889Z,9.20
2023-01-26T01:13:57.201Z,10.77
2023-01-26T01:16:29.508Z,10.90
2023-01-26T01:19:12.654Z,10.60
2023-01-26T01:21:55.128Z,10.70
2023-01-26T01:24:23.631Z,9.57
2023-01-26T01:26:53.482Z,10.77
2023-01-26T01:29:25.667Z,9.40
2023-01-26T01:31:57.203Z,10.40
2023-01-26T01:34:29.121Z,10.17
2023-01-26T01:37:00.809Z,9.17
2023-01-26T01:39:32.925Z,9.87
2023-01-26T01:42:07.070Z,8.67
2023-01-26T01:44:45.039Z,9.13
2023-01-26T01:47:25.142Z,9.37
2023-01-26T01:49:58.186Z,9.07
2023-01-26T01:52:32.914Z,8.97
2023-01-26T01:55:07.888Z,8.07
2023-01-26T01:57:48.800Z,9.37
2023-01-26T02:00:30.106Z,9.10
2023-01-26T02:03:19.439Z,8.83
2023-01-26T02:06:01.318Z,9.90
2023-01-26T02:08:40.765Z,8.80
2023-01-26T02:11:22.013Z,9.50
2023-01-26T02:13:52.190Z,9.90
2023-01-26T02:16:21.721Z,9.23
2023-01-26T02:18:51.344Z,8.57
2023-01-26T02:21:22.387Z,10.00
2023-01-26T02:24:03.285Z,10.97
2023-01-26T02:26:36.037Z,10.73
2023-01-26T02:29:10.868Z,11.80
2023-01-26T02:31:47.085Z,10.87
2023-01-26T02:34:21.553Z,9.60
2023-01-26T02:36:58.261Z,11.00
2023-01-26T02:39:44.756Z,11.90
2023-01-26T02:42:38.937Z,10.50
2023-01-26T02:45:09.927Z,10.83
2023-01-26T02:47:40.793Z,10.90
2023-01-26T02:50:16.603Z,11.53
2023-01-26T02:52:46.430Z,10.60
2023-01-26T02:55:38.770Z,11.10
2023-01-26T02:58:20.434Z,11.63
2023-01-26T03:00:49.757Z,11.27
2023-01-26T03:03:21.963Z,11.20
2023-01-26T03:05:54.643Z,11.03
2023-01-26T03:08:26.773Z,11.17
2023-01-26T03:10:56.666Z,11.50
2023-01-26T03:13:38.097Z,12.70
2023-01-26T03:16:10.434Z,11.90
2023-01-26T03:19:02.123Z,12.60
2023-01-26T03:21:56.124Z,10.97
2023-01-26T03:24:44.504Z,11.10
2023-01-26T03:27:33.194Z,12.03
2023-01-26T03:30:26.369Z,11.37
2023-01-26T03:33:02.848Z,12.23
2023-01-26T03:35:35.929Z,11.63
2023-01-26T03:38:04.645Z,12.20
2023-01-26T03:41:08.143Z,12.33
2023-01-26T03:43:57.263Z,12.80
2023-01-26T03:46:46.649Z,12.53
2023-01-26T03:49:37.115Z,12.33
2023-01-26T03:52:25.183Z,13.10
2023-01-26T03:55:11.973Z,12.30
2023-01-26T03:57:45.184Z,12.17
2023-01-26T04:00:23.845Z,13.90
2023-01-26T04:03:16.107Z,13.27
2023-01-26T04:06:15.742Z,14.00
2023-01-26T04:08:58.228Z,12.13
2023-01-26T04:11:26.463Z,12.70
2023-01-26T04:14:16.316Z,12.70
2023-01-26T04:17:02.951Z,12.53
2023-01-26T04:19:56.539Z,14.23
2023-01-26T04:22:36.958Z,14.07
2023-01-26T04:25:06.640Z,13.03
2023-01-26T04:27:46.276Z,13.67
2023-01-26T04:30:18.510Z,13.13
2023-01-26T04:32:47.501Z,15.90
2023-01-26T04:35:19.803Z,12.87
2023-01-26T04:37:50.589Z,14.80
2023-01-26T04:40:27.601Z,15.40
2023-01-26T04:43:06.137Z,14.30
2023-01-26T04:45:43.542Z,14.23
2023-01-26T04:48:15.039Z,14.30
2023-01-26T04:50:58.509Z,13.67
2023-01-26T04:53:31.689Z,14.67
2023-01-26T04:56:01.929Z,14.77
2023-01-26T04:58:32.047Z,14.97
2023-01-26T05:01:02.147Z,15.47
2023-01-26T05:03:31.489Z,16.03
2023-01-26T05:06:13.121Z,15.07
2023-01-26T05:08:48.626Z,15.60
2023-01-26T05:11:26.567Z,15.50
2023-01-26T05:14:17.358Z,15.27
2023-01-26T05:17:07.647Z,14.77
2023-01-26T05:19:56.634Z,14.37
2023-01-26T05:22:47.478Z,14.27
2023-01-26T05:25:36.346Z,14.90
2023-01-26T05:28:12.719Z,14.40
2023-01-26T05:30:43.688Z,14.67
2023-01-26T05:33:20.532Z,14.80
2023-01-26T05:35:51.671Z,14.33
2023-01-26T05:38:24.820Z,15.90
2023-01-26T05:40:56.765Z,15.93
2023-01-26T05:43:27.720Z,15.23
2023-01-26T05:46:35.479Z,17.03
2023-01-26T05:49:07.329Z,16.90
2023-01-26T05:51:40.779Z,17.97
2023-01-26T05:54:13.858Z,16.37
2023-01-26T05:56:43.253Z,16.00
2023-01-26T05:59:11.885Z,16.30
2023-01-26T06:01:41.779Z,16.30
2023-01-26T06:04:16.786Z,15.30
2023-01-26T06:06:55.203Z,15.30
2023-01-26T06:09:43.242Z,17.07
2023-01-26T06:12:36.044Z,14.40
2023-01-26T06:15:21.282Z,16.30
2023-01-26T06:17:56.625Z,16.73
2023-01-26T06:20:28.456Z,17.00
2023-01-26T06:23:02.792Z,17.70
2023-01-26T06:25:43.501Z,15.50
2023-01-26T06:28:14.105Z,15.87
2023-01-26T06:30:47.178Z,16.87
2023-01-26T06:33:19.318Z,17.93
2023-01-26T06:35:49.806Z,18.03
2023-01-26T06:38:20.361Z,16.20
2023-01-26T06:41:03.072Z,17.87
2023-01-26T06:43:35.301Z,15.53
2023-01-26T06:46:15.565Z,18.10
2023-01-26T06:48:48.029Z,17.97
2023-01-26T06:51:44.398Z,17.87
2023-01-26T06:54:22.077Z,17.40
2023-01-26T06:57:12.484Z,18.13
2023-01-26T07:00:06.183Z,18.77
2023-01-26T07:02:38.958Z,18.80
2023-01-26T07:05:19.319Z,18.87
2023-01-26T07:07:51.170Z,18.57
2023-01-26T07:10:23.660Z,18.47
2023-01-26T07:13:03.158Z,17.50
2023-01-26T07:15:34.395Z,19.23
2023-01-26T07:18:05.374Z,18.37
2023-01-26T07:20:33.997Z,17.70
2023-01-26T07:23:06.232Z,18.27
2023-01-26T07:25:35.813Z,26.63
2023-01-26T07:28:21.597Z,21.23
2023-01-26T07:30:52.574Z,18.80
2023-01-26T07:33:23.112Z,19.93
2023-01-26T07:35:54.583Z,20.00
2023-01-26T07:38:35.336Z,19.40
2023-01-26T07:41:10.196Z,20.10
2023-01-26T07:43:45.994Z,19.47
2023-01-26T07:46:17.743Z,21.10
2023-01-26T07:48:47.004Z,21.13
2023-01-26T07:51:16.217Z,22.27
2023-01-26T07:53:50.110Z,20.30
2023-01-26T07:56:20.970Z,20.20
2023-01-26T07:59:07.987Z,20.03
2023-01-26T08:01:37.137Z,21.70
2023-01-26T08:04:08.412Z,19.60
2023-01-26T08:06:38.816Z,21.50
2023-01-26T08:09:08.504Z,20.83
2023-01-26T08:11:42.665Z,22.00
2023-01-26T08:14:35.395Z,22.70
2023-01-26T08:17:23.739Z,21.83
2023-01-26T08:19:53.687Z,21.53
2023-01-26T08:22:28.524Z,21.27
2023-01-26T08:25:00.508Z,21.67
2023-01-26T08:27:28.911Z,20.73
2023-01-26T08:30:11.592Z,20.53
2023-01-26T08:32:43.347Z,20.63
2023-01-26T08:35:20.006Z,21.10
2023-01-26T08:37:50.055Z,22.13
2023-01-26T08:40:21.809Z,19.23
2023-01-26T08:42:51.393Z,19.70
2023-01-26T08:45:22.460Z,20.53
2023-01-26T08:47:54.295Z,20.93
2023-01-26T08:50:26.520Z,21.37
2023-01-26T08:53:05.388Z,20.37
2023-01-26T08:55:45.442Z,20.50
2023-01-26T08:58:13.838Z,20.30
2023-01-26T09:00:59.568Z,21.33
2023-01-26T09:03:28.866Z,19.73
2023-01-26T09:06:03.165Z,19.47
2023-01-26T09:08:34.053Z,21.73
2023-01-26T09:11:17.377Z,20.63
2023-01-26T09:13:48.667Z,21.10
2023-01-26T09:16:21.600Z,20.47
2023-01-26T09:18:58.286Z,20.57
2023-01-26T09:21:29.042Z,20.03
2023-01-26T09:24:01.297Z,22.70
2023-01-26T09:26:34.115Z,22.93
2023-01-26T09:29:05.401Z,21.10
2023-01-26T09:31:36.747Z,22.57
2023-01-26T09:34:10.214Z,22.73
2023-01-26T09:36:42.018Z,21.53
2023-01-26T09:39:11.142Z,21.83
2023-01-26T09:41:53.406Z,22.77
2023-01-26T09:44:28.332Z,22.00
2023-01-26T09:47:12.545Z,21.50
2023-01-26T09:49:50.640Z,22.30
2023-01-26T09:52:26.614Z,21.23
2023-01-26T09:55:00.813Z,20.93
2023-01-26T09:57:34.803Z,21.30
2023-01-26T10:00:18.896Z,20.70
2023-01-26T10:03:00.746Z,19.80
2023-01-26T10:05:39.767Z,22.30
2023-01-26T10:08:16.237Z,20.37
2023-01-26T10:10:50.855Z,21.33
2023-01-26T10:13:21.507Z,18.73
2023-01-26T10:15:54.857Z,20.60
2023-01-26T10:18:31.579Z,21.93
2023-01-26T10:21:01.873Z,20.90
2023-01-26T10:23:34.222Z,19.80
2023-01-26T10:26:17.106Z,20.90
2023-01-26T10:28:47.463Z,20.37
2023-01-26T10:31:18.743Z,21.30
2023-01-26T10:34:00.258Z,23.70
2023-01-26T10:36:34.290Z,22.50
2023-01-26T10:39:09.357Z,21.27
2023-01-26T10:41:48.317Z,23.00
2023-01-26T10:44:27.686Z,22.70
2023-01-26T10:47:18.220Z,21.70
2023-01-26T10:49:50.600Z,22.37
2023-01-26T10:52:23.145Z,20.20
2023-01-26T10:55:11.014Z,20.90
2023-01-26T10:57:45.042Z,22.97
2023-01-26T11:00:26.470Z,20.90
2023-01-26T11:03:04.669Z,20.60
2023-01-26T11:05:51.929Z,20.97
2023-01-26T11:08:35.674Z,23.13
2023-01-26T11:11:10.637Z,21.67
2023-01-26T11:13:44.025Z,21.73
2023-01-26T11:16:19.753Z,21.73
2023-01-26T11:18:56.865Z,22.63
2023-01-26T11:21:32.422Z,22.57
2023-01-26T11:24:10.558Z,22.90
2023-01-26T11:27:18.972Z,21.80
2023-01-26T11:30:17.022Z,25.07
2023-01-26T11:32:55.638Z,22.97
2023-01-26T11:35:33.590Z,24.67
2023-01-26T11:38:26.503Z,24.13
2023-01-26T11:41:05.891Z,23.73
2023-01-26T11:44:06.491Z,24.00
2023-01-26T11:47:05.496Z,24.77
2023-01-26T11:49:53.034Z,23.57
2023-01-26T11:52:36.028Z,23.67
2023-01-26T11:55:26.175Z,25.63
2023-01-26T11:58:08.315Z,24.50
2023-01-26T12:00:42.099Z,24.37
2023-01-26T12:03:21.301Z,22.60
2023-01-26T12:05:54.170Z,24.33
2023-01-26T12:08:38.654Z,23.80
2023-01-26T12:11:30.384Z,24.43
2023-01-26T12:14:12.577Z,25.10
2023-01-26T12:17:16.732Z,24.03
2023-01-26T12:19:55.312Z,24.07
2023-01-26T12:22:30.034Z,23.57
2023-01-26T12:25:28.656Z,23.93
2023-01-26T12:28:17.412Z,24.47
2023-01-26T12:30:55.453Z,24.03
2023-01-26T12:33:27.679Z,22.63
2023-01-26T12:36:29.915Z,22.67
2023-01-26T12:39:09.062Z,23.97
2023-01-26T12:42:06.760Z,22.83
2023-01-26T12:44:46.295Z,25.03
2023-01-26T12:47:20.067Z,23.00
2023-01-26T12:49:55.254Z,26.30
2023-01-26T12:52:32.006Z,24.63
2023-01-26T12:55:11.360Z,26.73
2023-01-26T12:57:44.230Z,24.37
2023-01-26T13:00:37.024Z,25.87
2023-01-26T13:03:20.182Z,24.70
2023-01-26T13:05:59.007Z,26.50
2023-01-26T13:09:00.710Z,26.80
2023-01-26T13:11:48.498Z,24.00
2023-01-26T13:14:52.246Z,25.43
2023-01-26T13:17:59.685Z,26.60
2023-01-26T13:20:58.222Z,24.33
2023-01-26T13:23:52.198Z,25.77
2023-01-26T13:26:43.723Z,24.83
2023-01-26T13:29:37.741Z,26.30
2023-01-26T13:32:51.282Z,25.13
2023-01-26T13:35:30.095Z,25.87
2023-01-26T13:38:12.526Z,23.87
2023-01-26T13:40:50.171Z,25.17
2023-01-26T13:43:29.685Z,25.07
2023-01-26T13:46:19.699Z,25.10
2023-01-26T13:49:03.900Z,25.17
2023-01-26T13:51:38.776Z,26.60
2023-01-26T13:54:16.438Z,24.40
2023-01-26T13:57:02.152Z,26.93
2023-01-26T13:59:33.200Z,24.40
2023-01-26T14:02:11.841Z,22.80
2023-01-26T14:04:52.430Z,24.90
2023-01-26T14:07:31.294Z,25.90
2023-01-26T14:10:04.617Z,24.47
2023-01-26T14:12:38.580Z,24.53
2023-01-26T14:15:24.358Z,24.13
2023-01-26T14:17:58.230Z,24.20
2023-01-26T14:20:32.345Z,22.73
2023-01-26T14:23:19.765Z,25.90
2023-01-26T14:26:01.409Z,24.07
2023-01-26T14:28:44.436Z,25.83
2023-01-26T14:31:28.194Z,24.37
2023-01-26T14:33:58.885Z,24.43
2023-01-26T14:36:37.191Z,24.20
2023-01-26T14:39:20.648Z,25.57
2023-01-26T14:41:52.966Z,25.07
2023-01-26T14:44:25.510Z,23.77
2023-01-26T14:46:58.773Z,24.37
2023-01-26T14:49:48.289Z,24.10
2023-01-26T14:52:26.846Z,23.80
2023-01-26T14:55:01.053Z,24.90
2023-01-26T14:57:33.252Z,25.30
2023-01-26T15:00:10.973Z,24.77
2023-01-26T15:02:44.919Z,29.20
2023-01-26T15:05:25.047Z,24.43
2023-01-26T15:07:58.996Z,24.70
2023-01-26T15:10:35.096Z,24.50
2023-01-26T15:13:26.803Z,23.97
2023-01-26T15:16:12.929Z,24.83
2023-01-26T15:18:46.950Z,24.20
2023-01-26T15:21:20.253Z,26.97
2023-01-26T15:24:01.780Z,24.43
2023-01-26T15:26:33.574Z,25.70
2023-01-26T15:29:22.075Z,24.40
2023-01-26T15:31:56.975Z,25.67
2023-01-26T15:34:32.686Z,24.40
2023-01-26T15:37:10.050Z,21.60
2023-01-26T15:39:40.943Z,23.60
2023-01-26T15:42:14.604Z,21.57
2023-01-26T15:44:58.177Z,21.57
2023-01-26T15:47:28.954Z,21.57
2023-01-26T15:50:00.306Z,21.00
2023-01-26T15:52:36.184Z,22.00
2023-01-26T15:55:18.560Z,21.27
2023-01-26T15:57:51.128Z,21.50
2023-01-26T16:00:28.969Z,21.27
2023-01-26T16:03:00.279Z,20.97
2023-01-26T16:05:34.907Z,20.80
2023-01-26T16:08:08.258Z,20.10
2023-01-26T16:10:39.290Z,21.13
2023-01-26T16:13:14.339Z,19.33
2023-01-26T16:15:46.330Z,20.23
2023-01-26T16:18:18.460Z,20.33
2023-01-26T16:20:59.155Z,19.10
2023-01-26T16:23:29.984Z,19.17
2023-01-26T16:26:01.991Z,18.97
2023-01-26T16:28:30.663Z,17.90
2023-01-26T16:31:19.471Z,19.63
2023-01-26T16:33:49.100Z,19.30
2023-01-26T16:36:27.282Z,19.10
2023-01-26T16:38:58.963Z,19.27
2023-01-26T16:41:33.075Z,18.67
2023-01-26T16:44:05.712Z,19.50
2023-01-26T16:46:54.693Z,19.90
2023-01-26T16:49:23.530Z,19.80
2023-01-26T16:52:01.521Z,17.40
2023-01-26T16:54:38.696Z,19.10
2023-01-26T16:57:15.469Z,18.40
2023-01-26T16:59:44.707Z,19.23
2023-01-26T17:02:41.063Z,18.73
2023-01-26T17:05:18.293Z,17.27
2023-01-26T17:07:50.808Z,20.47
2023-01-26T17:10:31.091Z,20.90
2023-01-26T17:13:10.950Z,20.97
2023-01-26T17:15:40.976Z,22.63
2023-01-26T17:18:18.493Z,20.40
2023-01-26T17:20:51.157Z,20.10
2023-01-26T17:23:24.931Z,19.30
2023-01-26T17:26:03.726Z,18.97
2023-01-26T17:28:39.903Z,18.83
2023-01-26T17:31:16.532Z,19.70
2023-01-26T17:33:50.720Z,18.37
2023-01-26T17:36:24.001Z,19.50
2023-01-26T17:39:00.540Z,19.17
2023-01-26T17:41:35.892Z,19.20
2023-01-26T17:44:12.568Z,20.43
2023-01-26T17:46:47.394Z,18.60
2023-01-26T17:49:32.180Z,18.00
2023-01-26T17:52:05.082Z,19.23
2023-01-26T17:54:38.492Z,17.90
2023-01-26T17:57:10.180Z,18.60
2023-01-26T17:59:49.676Z,18.30
2023-01-26T18:02:24.823Z,19.33
2023-01-26T18:07:54.839Z,19.00
2023-01-26T18:10:32.988Z,18.07
2023-01-26T18:13:01.576Z,18.23
2023-01-26T18:15:33.875Z,18.83
2023-01-26T18:18:08.058Z,18.70
2023-01-26T18:20:44.669Z,18.43
2023-01-26T18:23:27.239Z,20.07
2023-01-26T18:26:06.542Z,25.60
2023-01-26T18:28:54.825Z,23.27
2023-01-26T18:31:35.095Z,22.53
2023-01-26T18:34:06.975Z,23.63
2023-01-26T18:36:39.092Z,21.60
2023-01-26T18:39:18.162Z,21.97
2023-01-26T18:42:00.371Z,21.03
2023-01-26T18:44:32.116Z,19.83
2023-01-26T18:47:33.792Z,21.43
2023-01-26T18:50:25.043Z,19.30
2023-01-26T18:53:07.708Z,20.07
2023-01-26T18:55:40.433Z,19.60
2023-01-26T18:58:11.719Z,20.83
2023-01-26T19:00:53.614Z,19.40
2023-01-26T19:03:26.876Z,19.20
2023-01-26T19:05:58.979Z,19.33
2023-01-26T19:08:33.021Z,22.23
2023-01-26T19:14:01.356Z,17.33
2023-01-26T19:16:42.224Z,17.60
2023-01-26T19:19:20.996Z,18.83
2023-01-26T19:22:02.428Z,19.07
2023-01-26T19:24:40.113Z,17.83
2023-01-26T19:27:18.181Z,19.60
2023-01-26T19:29:47.907Z,20.33
2023-01-26T19:32:21.577Z,17.70
2023-01-26T19:34:59.040Z,19.30
2023-01-26T19:37:44.230Z,20.10
2023-01-26T19:40:29.119Z,20.40
2023-01-26T19:43:03.728Z,18.07
2023-01-26T19:45:43.804Z,18.13
2023-01-26T19:48:34.334Z,18.10
2023-01-26T19:51:12.960Z,15.13
2023-01-26T19:53:55.526Z,16.20
2023-01-26T19:56:54.890Z,15.70
2023-01-26T19:59:31.030Z,15.83
2023-01-26T20:02:15.025Z,15.33
2023-01-26T20:04:47.866Z,13.40
2023-01-26T20:07:22.427Z,13.07
2023-01-26T20:10:03.254Z,13.27
2023-01-26T20:12:39.054Z,12.50
2023-01-26T20:15:18.304Z,13.03
2023-01-26T20:17:53.042Z,12.10
2023-01-26T20:20:25.214Z,12.03
2023-01-26T20:23:05.991Z,13.10
2023-01-26T20:25:38.402Z,12.40
2023-01-26T20:28:19.804Z,12.80
2023-01-26T20:30:51.874Z,11.70
2023-01-26T20:33:33.277Z,13.47
2023-01-26T20:36:35.382Z,11.30
2023-01-26T20:39:07.320Z,11.97
2023-01-26T20:41:38.892Z,11.80
2023-01-26T20:44:14.943Z,11.20
2023-01-26T20:46:54.439Z,11.50
2023-01-26T20:49:35.210Z,10.87
2023-01-26T20:52:14.770Z,11.70
2023-01-26T20:54:47.480Z,11.80
2023-01-26T20:57:26.139Z,12.50
2023-01-26T21:00:07.418Z,11.40
2023-01-26T21:02:42.479Z,11.83
2023-01-26T21:05:15.690Z,12.67
2023-01-26T21:07:51.822Z,10.50
2023-01-26T21:10:24.150Z,11.67
2023-01-26T21:12:54.152Z,10.87
2023-01-26T21:15:30.141Z,9.40
2023-01-26T21:18:07.294Z,12.00
2023-01-26T21:20:47.811Z,12.63
2023-01-26T21:23:25.857Z,12.50
2023-01-26T21:26:02.717Z,12.10
2023-01-26T21:28:42.581Z,11.93
2023-01-26T21:31:20.182Z,10.80
2023-01-26T21:33:50.466Z,10.00
2023-01-26T21:36:24.521Z,10.70
2023-01-26T21:38:58.714Z,10.17
2023-01-26T21:41:49.241Z,12.20
2023-01-26T21:44:20.516Z,11.73
2023-01-26T21:46:53.778Z,11.47
2023-01-26T21:49:32.104Z,11.20
2023-01-26T21:52:21.073Z,12.80
2023-01-26T21:55:05.368Z,10.97
2023-01-26T21:57:57.405Z,10.77
2023-01-26T22:00:27.575Z,10.53
2023-01-26T22:03:01.261Z,11.87
2023-01-26T22:05:30.699Z,11.47
2023-01-26T22:08:00.117Z,11.73
2023-01-26T22:10:28.682Z,9.90
2023-01-26T22:13:01.344Z,10.43
2023-01-26T22:15:31.094Z,11.53
2023-01-26T22:18:05.028Z,12.70
2023-01-26T22:20:36.091Z,11.47
2023-01-26T22:23:05.233Z,10.87
2023-01-26T22:25:38.480Z,10.90
2023-01-26T22:28:09.352Z,11.80
2023-01-26T22:30:41.568Z,12.33
2023-01-26T22:33:14.493Z,11.57
2023-01-26T22:35:43.717Z,12.90
2023-01-26T22:38:12.893Z,11.00
2023-01-26T22:40:41.041Z,11.97
2023-01-26T22:43:12.478Z,11.30
2023-01-26T22:45:46.935Z,12.13
2023-01-26T22:48:21.060Z,10.33
2023-01-26T22:50:51.294Z,10.87
2023-01-26T22:53:22.551Z,11.20
2023-01-26T22:55:53.012Z,11.80
2023-01-26T22:58:24.799Z,9.90
2023-01-26T23:00:58.178Z,11.83
2023-01-26T23:03:29.957Z,12.40
2023-01-26T23:06:05.657Z,10.63
2023-01-26T23:08:34.799Z,10.00
2023-01-26T23:11:10.898Z,10.40
2023-01-26T23:13:42.136Z,11.27
2023-01-26T23:16:23.331Z,12.40
2023-01-26T23:19:02.999Z,11.93
2023-01-26T23:21:35.584Z,12.07
2023-01-26T23:24:04.225Z,11.97
2023-01-26T23:26:34.139Z,11.60
2023-01-26T23:29:12.797Z,11.30
2023-01-26T23:31:42.589Z,11.97
2023-01-26T23:34:15.071Z,12.60
2023-01-26T23:36:46.750Z,11.23
2023-01-26T23:39:24.984Z,11.83
2023-01-26T23:41:54.484Z,13.13
2023-01-26T23:44:26.950Z,10.80
2023-01-26T23:46:58.439Z,11.63
2023-01-26T23:49:31.561Z,10.70
2023-01-26T23:52:01.343Z,9.83
2023-01-26T23:54:33.461Z,7.87
2023-01-26T23:57:08.167Z,8.67
2023-01-26T23:59:42.511Z,9.30
